createdAt,value
2023-02-15T00:01:35.957Z,38.13
2023-02-15T00:04:03.330Z,40.38
2023-02-15T00:06:30.460Z,36.50
2023-02-15T00:08:57.279Z,36.42
2023-02-15T00:11:44.621Z,34.53
2023-02-15T00:14:17.738Z,32.03
2023-02-15T00:19:13.417Z,31.00
2023-02-15T00:21:41.079Z,31.55
2023-02-15T00:24:09.728Z,31.85
2023-02-15T00:26:38.521Z,32.53
2023-02-15T00:29:05.326Z,31.55
2023-02-15T00:31:33.447Z,32.78
2023-02-15T00:34:04.715Z,32.78
2023-02-15T00:36:31.383Z,28.75
2023-02-15T00:38:58.177Z,28.17
2023-02-15T00:41:25.111Z,28.90
2023-02-15T00:43:51.731Z,33.33
2023-02-15T00:46:18.539Z,32.55
2023-02-15T00:48:45.300Z,30.67
2023-02-15T00:51:12.022Z,33.55
2023-02-15T00:53:38.820Z,33.80
2023-02-15T00:56:05.578Z,31.38
2023-02-15T00:58:32.425Z,30.55
2023-02-15T01:01:08.451Z,31.00
2023-02-15T01:03:35.867Z,30.60
2023-02-15T01:06:03.856Z,26.92
2023-02-15T01:08:31.569Z,29.08
2023-02-15T01:11:03.476Z,31.00
2023-02-15T01:13:30.648Z,30.35
2023-02-15T01:15:57.410Z,32.05
2023-02-15T01:18:24.146Z,30.08
2023-02-15T01:20:50.798Z,30.98
2023-02-15T01:23:17.594Z,29.00
2023-02-15T01:25:46.569Z,27.08
2023-02-15T01:28:13.730Z,31.40
2023-02-15T01:30:40.462Z,27.25
2023-02-15T01:33:07.074Z,33.40
2023-02-15T01:35:33.862Z,31.00
2023-02-15T01:38:00.448Z,29.17
2023-02-15T01:40:27.034Z,32.22
2023-02-15T01:42:55.475Z,30.73
2023-02-15T01:45:28.391Z,32.30
2023-02-15T01:48:06.260Z,32.70
2023-02-15T01:50:39.818Z,32.88
2023-02-15T01:53:25.853Z,31.08
2023-02-15T01:56:00.008Z,32.80
2023-02-15T01:58:30.073Z,32.53
2023-02-15T02:01:01.123Z,35.88
2023-02-15T02:03:56.083Z,33.88
2023-02-15T02:06:25.296Z,34.22
2023-02-15T02:08:53.222Z,34.05
2023-02-15T02:11:19.875Z,34.08
2023-02-15T02:13:48.135Z,34.20
2023-02-15T02:16:19.262Z,35.28
2023-02-15T02:19:13.889Z,38.65
2023-02-15T02:22:24.337Z,36.97
2023-02-15T02:25:30.696Z,34.58
2023-02-15T02:28:51.041Z,35.45
2023-02-15T02:32:05.264Z,31.58
2023-02-15T02:34:39.611Z,36.05
2023-02-15T02:37:09.151Z,33.83
2023-02-15T02:39:54.685Z,35.65
2023-02-15T02:42:35.960Z,35.22
2023-02-15T02:45:27.078Z,36.83
2023-02-15T02:48:19.141Z,36.97
2023-02-15T02:50:49.473Z,36.85
2023-02-15T02:53:16.737Z,38.60
2023-02-15T02:55:44.032Z,33.88
2023-02-15T02:58:14.173Z,35.22
2023-02-15T03:00:49.635Z,34.60
2023-02-15T03:03:33.884Z,39.53
2023-02-15T03:06:07.194Z,38.10
2023-02-15T03:08:39.110Z,36.25
2023-02-15T03:11:06.191Z,34.55
2023-02-15T03:13:34.418Z,42.55
2023-02-15T03:16:21.745Z,38.05
2023-02-15T03:18:53.962Z,35.33
2023-02-15T03:22:04.471Z,40.30
2023-02-15T03:24:47.913Z,41.03
2023-02-15T03:27:22.457Z,39.10
2023-02-15T03:29:53.683Z,40.90
2023-02-15T03:32:20.977Z,39.03
2023-02-15T03:34:47.710Z,41.10
2023-02-15T03:37:33.160Z,38.35
2023-02-15T03:40:35.862Z,36.83
2023-02-15T03:43:36.645Z,36.83
2023-02-15T03:46:33.143Z,37.05
2023-02-15T03:49:16.722Z,40.08
2023-02-15T03:51:47.739Z,39.65
2023-02-15T03:54:41.830Z,35.67
2023-02-15T03:57:34.478Z,39.08
2023-02-15T04:00:23.111Z,33.63
2023-02-15T04:03:13.750Z,36.78
2023-02-15T04:05:40.752Z,38.25
2023-02-15T04:08:07.433Z,40.88
2023-02-15T04:10:52.573Z,39.92
2023-02-15T04:13:21.230Z,37.00
2023-02-15T04:16:07.288Z,36.78
2023-02-15T04:19:02.918Z,38.03
2023-02-15T04:21:49.638Z,38.40
2023-02-15T04:24:35.714Z,37.63
2023-02-15T04:27:04.280Z,38.92
2023-02-15T04:29:31.328Z,42.67
2023-02-15T04:32:00.311Z,40.38
2023-02-15T04:34:27.157Z,38.72
2023-02-15T04:36:53.737Z,40.03
2023-02-15T04:39:20.524Z,40.85
2023-02-15T04:41:47.159Z,45.78
2023-02-15T04:44:13.852Z,48.40
2023-02-15T04:46:40.402Z,39.70
2023-02-15T04:49:07.045Z,42.78
2023-02-15T04:51:33.651Z,42.88
2023-02-15T04:54:00.324Z,44.63
2023-02-15T04:56:26.892Z,48.58
2023-02-15T04:58:53.807Z,44.72
2023-02-15T05:01:20.456Z,45.83
2023-02-15T05:03:47.397Z,46.42
2023-02-15T05:06:13.961Z,46.55
2023-02-15T05:08:40.550Z,44.97
2023-02-15T05:11:07.344Z,47.67
2023-02-15T05:13:34.096Z,51.70
2023-02-15T05:16:01.059Z,43.63
2023-02-15T05:18:28.101Z,44.03
2023-02-15T05:20:54.857Z,42.42
2023-02-15T05:23:21.505Z,41.78
2023-02-15T05:26:10.220Z,42.42
2023-02-15T05:28:38.381Z,43.17
2023-02-15T05:31:08.899Z,40.60
2023-02-15T05:33:35.962Z,44.75
2023-02-15T05:36:03.923Z,47.72
2023-02-15T05:38:31.228Z,42.65
2023-02-15T05:40:58.428Z,37.58
2023-02-15T05:43:25.419Z,36.05
2023-02-15T05:45:54.480Z,38.72
2023-02-15T05:48:23.596Z,38.92
2023-02-15T05:51:04.243Z,42.17
2023-02-15T05:53:32.923Z,40.55
2023-02-15T05:56:01.551Z,40.55
2023-02-15T05:58:31.763Z,42.88
2023-02-15T06:00:58.855Z,47.30
2023-02-15T06:03:26.966Z,49.55
2023-02-15T06:05:53.900Z,42.13
2023-02-15T06:08:21.587Z,42.55
2023-02-15T06:10:48.775Z,41.67
2023-02-15T06:13:15.409Z,40.13
2023-02-15T06:15:42.216Z,47.08
2023-02-15T06:18:08.932Z,43.47
2023-02-15T06:20:35.488Z,43.33
2023-02-15T06:23:02.232Z,47.05
2023-02-15T06:25:29.861Z,43.50
2023-02-15T06:27:56.622Z,39.13
2023-02-15T06:30:23.395Z,43.92
2023-02-15T06:32:50.021Z,40.22
2023-02-15T06:35:16.926Z,34.85
2023-02-15T06:37:47.965Z,37.47
2023-02-15T06:40:14.972Z,35.22
2023-02-15T06:42:43.249Z,33.53
2023-02-15T06:45:10.502Z,36.20
2023-02-15T06:47:37.532Z,32.50
2023-02-15T06:50:06.096Z,35.95
2023-02-15T06:52:33.043Z,36.78
2023-02-15T06:54:59.657Z,34.92
2023-02-15T06:57:26.272Z,32.83
2023-02-15T06:59:53.927Z,32.85
2023-02-15T07:02:20.715Z,31.88
2023-02-15T07:04:47.455Z,39.80
2023-02-15T07:07:14.263Z,29.65
2023-02-15T07:09:40.830Z,32.55
2023-02-15T07:12:26.446Z,38.72
2023-02-15T07:14:53.737Z,34.65
2023-02-15T07:17:35.514Z,33.95
2023-02-15T07:20:09.131Z,39.38
2023-02-15T07:22:37.420Z,36.03
2023-02-15T07:25:06.330Z,32.88
2023-02-15T07:27:33.722Z,38.05
2023-02-15T07:30:01.299Z,39.55
2023-02-15T07:32:30.583Z,44.25
2023-02-15T07:34:57.997Z,44.95
2023-02-15T07:37:24.721Z,40.92
2023-02-15T07:39:51.593Z,44.90
2023-02-15T07:42:20.693Z,44.47
2023-02-15T07:44:47.834Z,48.42
2023-02-15T07:47:14.856Z,46.33
2023-02-15T07:49:41.478Z,43.63
2023-02-15T07:52:08.891Z,43.42
2023-02-15T07:54:36.026Z,42.33
2023-02-15T07:57:03.638Z,41.15
2023-02-15T07:59:30.991Z,45.92
2023-02-15T08:01:58.513Z,45.50
2023-02-15T08:04:25.662Z,39.60
2023-02-15T08:06:55.917Z,46.50
2023-02-15T08:09:23.638Z,42.67
2023-02-15T08:11:50.723Z,46.33
2023-02-15T08:14:19.969Z,48.67
2023-02-15T08:16:51.347Z,46.92
2023-02-15T08:19:26.993Z,53.03
2023-02-15T08:21:59.317Z,44.60
2023-02-15T08:24:31.337Z,47.57
2023-02-15T08:26:59.613Z,43.03
2023-02-15T08:29:28.434Z,44.97
2023-02-15T08:32:03.559Z,45.50
2023-02-15T08:34:32.955Z,47.10
2023-02-15T08:36:59.719Z,50.20
2023-02-15T08:39:26.356Z,46.72
2023-02-15T08:41:53.119Z,48.58
2023-02-15T08:44:20.996Z,48.88
2023-02-15T08:46:49.489Z,48.53
2023-02-15T08:49:19.894Z,49.83
2023-02-15T08:51:48.768Z,48.47
2023-02-15T08:54:21.869Z,48.47
2023-02-15T08:59:22.095Z,43.88
2023-02-15T09:01:51.496Z,51.80
2023-02-15T09:04:18.731Z,47.28
2023-02-15T09:06:49.345Z,44.95
2023-02-15T09:09:18.950Z,49.78
2023-02-15T09:11:49.141Z,48.50
2023-02-15T09:14:26.000Z,46.65
2023-02-15T09:16:54.317Z,46.03
2023-02-15T09:19:23.800Z,47.67
2023-02-15T09:21:51.237Z,47.60
2023-02-15T09:24:19.197Z,49.38
2023-02-15T09:26:48.568Z,46.33
2023-02-15T09:29:17.682Z,51.17
2023-02-15T09:31:47.416Z,49.63
2023-02-15T09:34:17.422Z,51.03
2023-02-15T09:36:44.474Z,49.20
2023-02-15T09:39:16.826Z,45.25
2023-02-15T09:42:03.638Z,51.45
2023-02-15T09:44:58.936Z,46.47
2023-02-15T09:47:43.771Z,47.90
2023-02-15T09:50:25.592Z,48.53
2023-02-15T09:53:08.014Z,51.40
2023-02-15T09:55:47.545Z,45.88
2023-02-15T09:58:14.805Z,50.00
2023-02-15T10:01:07.309Z,47.03
2023-02-15T10:03:58.206Z,48.10
2023-02-15T10:06:43.482Z,51.00
2023-02-15T10:09:29.494Z,48.97
2023-02-15T10:12:05.864Z,57.20
2023-02-15T10:14:41.349Z,44.22
2023-02-15T10:17:34.720Z,45.20
2023-02-15T10:20:24.426Z,44.00
2023-02-15T10:22:58.217Z,49.28
2023-02-15T10:25:31.151Z,43.90
2023-02-15T10:28:14.154Z,47.78
2023-02-15T10:31:09.833Z,48.33
2023-02-15T10:33:43.373Z,47.70
2023-02-15T10:36:49.462Z,47.42
2023-02-15T10:39:22.232Z,45.45
2023-02-15T10:42:14.016Z,50.42
2023-02-15T10:44:50.933Z,46.95
2023-02-15T10:47:26.675Z,49.15
2023-02-15T10:50:15.060Z,47.42
2023-02-15T10:52:50.078Z,45.40
2023-02-15T10:55:30.471Z,49.20
2023-02-15T10:58:17.289Z,48.75
2023-02-15T11:01:02.468Z,45.45
2023-02-15T11:03:37.911Z,48.45
2023-02-15T11:06:17.188Z,49.47
2023-02-15T11:08:55.962Z,46.78
2023-02-15T11:11:28.604Z,45.22
2023-02-15T11:14:02.088Z,47.63
2023-02-15T11:16:39.997Z,47.55
2023-02-15T11:19:15.717Z,44.85
2023-02-15T11:21:50.893Z,44.28
2023-02-15T11:24:21.085Z,47.85
2023-02-15T11:26:47.656Z,45.33
2023-02-15T11:29:36.954Z,44.47
2023-02-15T11:32:21.228Z,45.15
2023-02-15T11:35:11.482Z,47.90
2023-02-15T11:38:19.703Z,47.13
2023-02-15T11:41:01.191Z,45.30
2023-02-15T11:43:37.019Z,48.58
2023-02-15T11:46:04.663Z,47.33
2023-02-15T11:48:33.328Z,46.47
2023-02-15T11:51:03.363Z,44.85
2023-02-15T11:53:35.066Z,45.70
2023-02-15T11:56:04.861Z,43.75
2023-02-15T11:58:44.903Z,44.42
2023-02-15T12:01:34.655Z,42.53
2023-02-15T12:04:41.720Z,46.50
2023-02-15T12:07:09.976Z,44.20
2023-02-15T12:10:01.021Z,42.85
2023-02-15T12:12:34.498Z,41.42
2023-02-15T12:15:07.981Z,41.00
2023-02-15T12:17:49.679Z,42.22
2023-02-15T12:20:16.740Z,39.72
2023-02-15T12:23:04.969Z,41.38
2023-02-15T12:25:39.094Z,43.83
2023-02-15T12:28:24.383Z,39.72
2023-02-15T12:30:53.684Z,42.38
2023-02-15T12:33:36.445Z,48.08
2023-02-15T12:36:12.086Z,42.90
2023-02-15T12:38:39.318Z,42.03
2023-02-15T12:41:26.524Z,42.08
2023-02-15T12:44:24.430Z,44.92
2023-02-15T12:47:30.754Z,41.10
2023-02-15T12:50:35.040Z,40.72
2023-02-15T12:53:08.259Z,43.38
2023-02-15T12:55:36.153Z,42.35
2023-02-15T12:58:26.245Z,42.25
2023-02-15T13:01:15.499Z,40.10
2023-02-15T13:04:15.554Z,40.22
2023-02-15T13:06:49.794Z,43.33
2023-02-15T13:09:20.770Z,43.85
2023-02-15T13:11:48.021Z,42.17
2023-02-15T13:14:23.618Z,37.53
2023-02-15T13:16:54.188Z,43.22
2023-02-15T13:19:34.608Z,41.17
2023-02-15T13:22:06.398Z,40.35
2023-02-15T13:25:00.387Z,41.60
2023-02-15T13:27:38.761Z,41.88
2023-02-15T13:30:21.415Z,43.08
2023-02-15T13:32:50.705Z,45.17
2023-02-15T13:35:19.816Z,38.70
2023-02-15T13:38:08.874Z,45.80
2023-02-15T13:40:51.143Z,42.55
2023-02-15T13:43:24.021Z,43.20
2023-02-15T13:46:00.387Z,42.25
2023-02-15T13:48:50.962Z,40.47
2023-02-15T13:51:33.249Z,44.58
2023-02-15T13:54:13.129Z,40.53
2023-02-15T13:57:16.774Z,44.45
2023-02-15T14:00:31.470Z,39.50
2023-02-15T14:03:04.474Z,42.20
2023-02-15T14:05:49.186Z,40.00
2023-02-15T14:08:41.467Z,42.60
2023-02-15T14:11:22.901Z,45.47
2023-02-15T14:13:55.387Z,42.65
2023-02-15T14:19:37.621Z,45.08
2023-02-15T14:22:12.642Z,42.35
2023-02-15T14:24:46.462Z,39.92
2023-02-15T14:27:29.011Z,42.88
2023-02-15T14:30:01.797Z,46.53
2023-02-15T14:32:42.512Z,42.90
2023-02-15T14:35:17.928Z,45.67
2023-02-15T14:37:59.434Z,44.28
2023-02-15T14:41:02.712Z,41.38
2023-02-15T14:43:32.613Z,45.05
2023-02-15T14:46:26.860Z,42.47
2023-02-15T14:49:04.650Z,46.15
2023-02-15T14:51:47.079Z,42.15
2023-02-15T14:54:19.986Z,46.08
2023-02-15T14:57:08.282Z,45.10
2023-02-15T14:59:58.549Z,49.60
2023-02-15T15:02:47.855Z,44.72
2023-02-15T15:05:26.389Z,45.15
2023-02-15T15:07:59.380Z,47.88
2023-02-15T15:10:27.198Z,49.53
2023-02-15T15:13:32.411Z,44.90
2023-02-15T15:16:28.153Z,47.20
2023-02-15T15:18:56.033Z,51.05
2023-02-15T15:21:44.636Z,53.00
2023-02-15T15:24:40.644Z,47.83
2023-02-15T15:27:46.326Z,49.88
2023-02-15T15:30:19.275Z,46.60
2023-02-15T15:32:55.540Z,50.03
2023-02-15T15:35:38.508Z,52.85
2023-02-15T15:38:32.219Z,51.63
2023-02-15T15:40:59.176Z,50.25
2023-02-15T15:44:01.598Z,45.65
2023-02-15T15:46:38.825Z,46.35
2023-02-15T15:49:29.773Z,54.88
2023-02-15T15:52:00.739Z,50.88
2023-02-15T15:54:28.893Z,52.45
2023-02-15T15:57:03.746Z,51.75
2023-02-15T15:59:35.575Z,56.60
2023-02-15T16:02:08.743Z,49.40
2023-02-15T16:04:36.727Z,52.22
2023-02-15T16:07:25.687Z,56.33
2023-02-15T16:10:00.591Z,56.30
2023-02-15T16:12:30.853Z,56.42
2023-02-15T16:14:59.844Z,58.10
2023-02-15T16:17:33.078Z,54.92
2023-02-15T16:20:15.586Z,55.28
2023-02-15T16:22:42.860Z,56.40
2023-02-15T16:25:49.017Z,54.20
2023-02-15T16:28:19.603Z,51.88
2023-02-15T16:30:47.260Z,55.25
2023-02-15T16:33:18.745Z,64.97
2023-02-15T16:35:59.279Z,58.55
2023-02-15T16:38:44.955Z,55.20
2023-02-15T16:41:15.649Z,69.68
2023-02-15T16:43:47.329Z,67.07
2023-02-15T16:46:26.701Z,65.95
2023-02-15T16:48:58.010Z,65.38
2023-02-15T16:51:28.707Z,60.08
2023-02-15T16:53:58.021Z,62.83
2023-02-15T16:56:28.041Z,68.43
2023-02-15T16:58:56.890Z,67.00
2023-02-15T17:01:27.647Z,63.22
2023-02-15T17:04:13.960Z,59.40
2023-02-15T17:06:41.040Z,59.28
2023-02-15T17:09:19.389Z,54.85
2023-02-15T17:11:46.500Z,61.53
2023-02-15T17:14:21.846Z,60.63
2023-02-15T17:16:50.930Z,66.45
2023-02-15T17:19:22.845Z,61.60
2023-02-15T17:22:02.957Z,63.65
2023-02-15T17:24:37.412Z,60.65
2023-02-15T17:27:23.638Z,64.13
2023-02-15T17:30:16.353Z,62.50
2023-02-15T17:32:55.664Z,64.30
2023-02-15T17:35:28.195Z,65.97
2023-02-15T17:38:15.957Z,63.10
2023-02-15T17:40:43.393Z,62.42
2023-02-15T17:43:10.225Z,64.70
2023-02-15T17:45:43.991Z,61.53
2023-02-15T17:48:21.568Z,63.35
2023-02-15T17:50:48.694Z,67.35
2023-02-15T17:53:20.203Z,73.15
2023-02-15T17:55:47.847Z,85.93
2023-02-15T17:58:19.445Z,87.30
2023-02-15T18:01:16.813Z,76.63
2023-02-15T18:04:10.789Z,83.03
2023-02-15T18:07:00.050Z,75.80
2023-02-15T18:09:45.996Z,76.55
2023-02-15T18:12:26.108Z,82.32
2023-02-15T18:14:56.786Z,69.10
2023-02-15T18:17:48.103Z,73.75
2023-02-15T18:20:18.721Z,66.35
2023-02-15T18:22:46.897Z,70.93
2023-02-15T18:25:16.967Z,70.28
2023-02-15T18:27:44.953Z,64.63
2023-02-15T18:30:18.117Z,68.70
2023-02-15T18:32:46.792Z,73.03
2023-02-15T18:35:18.808Z,68.97
2023-02-15T18:37:47.577Z,70.80
2023-02-15T18:40:17.947Z,64.53
2023-02-15T18:42:48.541Z,67.85
2023-02-15T18:45:42.019Z,75.88
2023-02-15T18:48:10.379Z,72.22
2023-02-15T18:50:38.821Z,82.95
2023-02-15T18:53:13.903Z,90.93
2023-02-15T18:55:41.806Z,84.85
2023-02-15T18:58:21.456Z,85.47
2023-02-15T19:00:51.006Z,81.80
2023-02-15T19:03:19.275Z,95.45
2023-02-15T19:05:47.940Z,91.90
2023-02-15T19:08:23.406Z,99.93
2023-02-15T19:10:53.723Z,100.47
2023-02-15T19:13:21.056Z,94.93
2023-02-15T19:15:48.674Z,90.88
2023-02-15T19:18:17.291Z,93.30
2023-02-15T19:20:47.047Z,86.63
2023-02-15T19:23:23.691Z,79.63
2023-02-15T19:25:53.431Z,83.70
2023-02-15T19:28:29.666Z,79.70
2023-02-15T19:30:57.017Z,75.43
2023-02-15T19:33:23.906Z,80.88
2023-02-15T19:35:55.570Z,77.45
2023-02-15T19:38:26.535Z,75.35
2023-02-15T19:41:00.150Z,79.75
2023-02-15T19:43:30.239Z,84.65
2023-02-15T19:45:58.001Z,77.18
2023-02-15T19:48:25.468Z,81.57
2023-02-15T19:50:57.264Z,83.00
2023-02-15T19:53:28.953Z,75.40
2023-02-15T19:55:56.585Z,82.68
2023-02-15T19:58:23.937Z,76.20
2023-02-15T20:00:52.381Z,77.00
2023-02-15T20:03:19.878Z,75.65
2023-02-15T20:05:47.886Z,73.93
2023-02-15T20:08:18.998Z,74.95
2023-02-15T20:10:46.427Z,80.95
2023-02-15T20:13:15.712Z,80.75
2023-02-15T20:15:43.474Z,74.03
2023-02-15T20:18:11.744Z,76.53
2023-02-15T20:20:47.169Z,76.65
2023-02-15T20:23:30.658Z,80.75
2023-02-15T20:25:59.522Z,73.28
2023-02-15T20:28:29.218Z,74.88
2023-02-15T20:30:56.768Z,75.20
2023-02-15T20:33:24.565Z,67.85
2023-02-15T20:35:52.369Z,73.13
2023-02-15T20:38:28.561Z,74.65
2023-02-15T20:41:16.067Z,70.72
2023-02-15T20:43:42.746Z,66.63
2023-02-15T20:46:10.279Z,73.40
2023-02-15T20:48:38.008Z,64.13
2023-02-15T20:51:06.304Z,73.57
2023-02-15T20:53:35.185Z,61.58
2023-02-15T20:56:02.511Z,68.10
2023-02-15T20:58:30.974Z,66.43
2023-02-15T21:00:59.373Z,71.22
2023-02-15T21:03:31.143Z,63.60
2023-02-15T21:05:59.368Z,66.28
2023-02-15T21:08:26.518Z,71.38
2023-02-15T21:10:53.809Z,65.75
2023-02-15T21:13:22.827Z,64.10
2023-02-15T21:15:51.492Z,69.30
2023-02-15T21:18:26.480Z,68.57
2023-02-15T21:20:58.156Z,63.08
2023-02-15T21:23:29.086Z,64.18
2023-02-15T21:25:57.250Z,63.80
2023-02-15T21:28:27.631Z,64.85
2023-02-15T21:30:57.731Z,65.80
2023-02-15T21:33:25.903Z,66.10
2023-02-15T21:35:55.652Z,66.97
2023-02-15T21:38:25.132Z,74.97
2023-02-15T21:40:52.190Z,69.95
2023-02-15T21:43:43.283Z,72.05
2023-02-15T21:46:37.291Z,64.15
2023-02-15T21:49:07.137Z,61.27
2023-02-15T21:51:52.889Z,74.53
2023-02-15T21:54:20.861Z,68.80
2023-02-15T21:56:50.971Z,62.58
2023-02-15T21:59:18.465Z,61.42
2023-02-15T22:01:48.870Z,68.47
2023-02-15T22:04:30.365Z,64.40
2023-02-15T22:06:57.326Z,69.43
2023-02-15T22:09:27.143Z,65.82
2023-02-15T22:11:55.271Z,65.53
2023-02-15T22:14:27.949Z,68.80
2023-02-15T22:16:54.554Z,67.32
2023-02-15T22:19:21.226Z,69.10
2023-02-15T22:21:47.988Z,71.15
2023-02-15T22:24:14.684Z,68.88
2023-02-15T22:26:41.776Z,67.25
2023-02-15T22:29:16.278Z,71.60
2023-02-15T22:31:43.750Z,67.88
2023-02-15T22:34:33.178Z,70.65
2023-02-15T22:37:00.164Z,66.05
2023-02-15T22:39:26.713Z,75.45
2023-02-15T22:41:54.336Z,64.65
2023-02-15T22:44:28.873Z,71.73
2023-02-15T22:46:56.296Z,69.80
2023-02-15T22:49:23.083Z,65.17
2023-02-15T22:51:51.085Z,71.93
2023-02-15T22:54:18.839Z,69.70
2023-02-15T22:56:50.525Z,71.67
2023-02-15T22:59:21.701Z,68.07
2023-02-15T23:01:48.783Z,69.47
2023-02-15T23:04:21.066Z,66.55
2023-02-15T23:06:48.271Z,67.78
2023-02-15T23:09:15.821Z,70.27
2023-02-15T23:11:42.568Z,74.50
2023-02-15T23:14:25.880Z,74.33
2023-02-15T23:19:19.222Z,67.00
2023-02-15T23:21:46.171Z,73.60
2023-02-15T23:24:17.810Z,65.83
2023-02-15T23:26:45.219Z,73.93
2023-02-15T23:29:17.984Z,66.20
2023-02-15T23:31:47.281Z,73.32
2023-02-15T23:34:26.134Z,63.43
2023-02-15T23:36:52.832Z,64.63
2023-02-15T23:39:43.603Z,77.67
2023-02-15T23:42:18.124Z,66.47
2023-02-15T23:44:46.248Z,67.93
2023-02-15T23:47:51.780Z,74.37
2023-02-15T23:50:21.044Z,68.23
2023-02-15T23:52:47.980Z,67.43
2023-02-15T23:55:15.980Z,69.83
2023-02-15T23:57:43.624Z,70.00
